Terminal Aerodrome Forecast
Issued by NWS Chicago, IL

Home | Current Version | Previous Version | Text Only | Print | Product List | Glossary Off
Versions: 1 2 3 4 5 6 7 8 9 10 11 12 13 14 15 16 17 18 19 20 21 22 23 24 25 26 27

144
FTUS43 KLOT 261138
TAFRFD
TAF
KRFD 261138Z 2612/2712 08007KT 1SM -RADZ BR OVC003
      TEMPO 2612/2614 1/2SM FG OVC002
     FM261500 13007KT 3SM -RADZ BR OVC003
     FM261700 18006KT 3SM BR VCSH BKN006 OVC010
     FM262000 25005KT 5SM BR SCT009 OVC020
     FM270400 28005KT 5SM BR OVC007
     FM270800 32005KT 3SM BR SCT004 OVC007=

USA.gov is the U.S. government's official web portal to all federal, state and local government web resources and services.